createdAt,value
2018-08-24T00:00:29.825Z,61.46
2018-08-24T00:02:59.161Z,61.08
2018-08-24T00:05:28.310Z,61.05
2018-08-24T00:07:57.465Z,61.46
2018-08-24T00:10:26.637Z,61.31
2018-08-24T00:12:55.777Z,60.03
2018-08-24T00:15:24.925Z,60.64
2018-08-24T00:17:54.342Z,60.53
2018-08-24T00:20:23.481Z,60.42
2018-08-24T00:22:52.593Z,60.02
2018-08-24T00:25:21.728Z,60.22
2018-08-24T00:27:50.840Z,59.59
2018-08-24T00:30:20.132Z,59.59
2018-08-24T00:32:49.261Z,60.21
2018-08-24T00:35:18.386Z,59.97
2018-08-24T00:37:47.825Z,59.50
2018-08-24T00:40:23.198Z,59.16
2018-08-24T00:42:52.669Z,59.08
2018-08-24T00:45:21.784Z,59.33
2018-08-24T00:47:50.906Z,59.32
2018-08-24T00:50:20.037Z,58.83
2018-08-24T00:52:49.169Z,59.50
2018-08-24T00:55:18.301Z,58.84
2018-08-24T00:57:47.443Z,59.22
2018-08-24T01:00:16.602Z,59.90
2018-08-24T01:02:45.717Z,59.84
2018-08-24T01:05:14.857Z,59.64
2018-08-24T01:07:49.289Z,59.48
2018-08-24T01:10:23.845Z,59.41
2018-08-24T01:12:53.013Z,59.24
2018-08-24T01:15:22.125Z,59.18
2018-08-24T01:18:57.261Z,59.37
2018-08-24T01:21:26.436Z,60.17
2018-08-24T01:23:55.573Z,60.24
2018-08-24T01:26:25.501Z,59.67
2018-08-24T01:28:55.119Z,59.96
2018-08-24T01:31:24.253Z,60.29
2018-08-24T01:33:53.392Z,60.76
2018-08-24T01:36:22.586Z,60.47
2018-08-24T01:38:51.844Z,60.52
2018-08-24T01:41:20.962Z,60.66
2018-08-24T01:43:50.081Z,60.94
2018-08-24T01:46:19.221Z,60.60
2018-08-24T01:48:48.355Z,60.33
2018-08-24T01:51:17.486Z,60.62
2018-08-24T01:53:46.609Z,61.18
2018-08-24T01:56:22.501Z,61.21
2018-08-24T01:58:51.633Z,62.04
2018-08-24T02:01:20.753Z,62.42
2018-08-24T02:03:49.936Z,62.09
2018-08-24T02:06:19.065Z,61.67
2018-08-24T02:08:48.194Z,61.66
2018-08-24T02:11:34.737Z,61.94
2018-08-24T02:14:09.060Z,61.84
2018-08-24T02:16:39.113Z,61.79
2018-08-24T02:19:11.386Z,62.09
2018-08-24T02:21:45.842Z,62.54
2018-08-24T02:24:15.197Z,62.26
2018-08-24T02:26:45.174Z,62.29
2018-08-24T02:29:14.315Z,62.38
2018-08-24T02:31:50.197Z,62.38
2018-08-24T02:34:19.449Z,62.38
2018-08-24T02:36:48.574Z,62.41
2018-08-24T02:39:18.928Z,61.58
2018-08-24T02:41:48.062Z,61.58
2018-08-24T02:44:17.249Z,62.96
2018-08-24T02:46:47.148Z,62.91
2018-08-24T02:49:16.272Z,63.19
2018-08-24T02:51:45.417Z,63.20
2018-08-24T02:54:14.580Z,63.29
2018-08-24T02:56:43.858Z,63.57
2018-08-24T02:59:13.116Z,63.41
2018-08-24T03:01:42.261Z,62.92
2018-08-24T03:04:11.416Z,63.96
2018-08-24T03:06:40.599Z,63.69
2018-08-24T03:09:11.137Z,63.35
2018-08-24T03:11:40.306Z,63.32
2018-08-24T03:14:09.484Z,64.06
2018-08-24T03:16:38.658Z,63.94
2018-08-24T03:19:07.793Z,64.72
2018-08-24T03:21:36.974Z,64.51
2018-08-24T03:24:05.809Z,64.05
2018-08-24T03:26:35.359Z,64.42
2018-08-24T03:29:04.525Z,64.18
2018-08-24T03:31:33.680Z,64.67
2018-08-24T03:34:02.966Z,65.52
2018-08-24T03:36:32.097Z,65.76
2018-08-24T03:39:01.325Z,65.38
2018-08-24T03:41:30.534Z,65.35
2018-08-24T03:44:00.577Z,66.27
2018-08-24T03:46:29.706Z,66.20
2018-08-24T03:48:58.954Z,65.51
2018-08-24T03:51:28.073Z,65.55
2018-08-24T03:53:57.217Z,66.32
2018-08-24T03:56:26.417Z,65.50
2018-08-24T03:58:55.557Z,66.01
2018-08-24T04:01:24.705Z,66.31
2018-08-24T04:03:53.863Z,65.64
2018-08-24T04:06:23.006Z,66.56
2018-08-24T04:08:52.137Z,66.65
2018-08-24T04:11:21.286Z,66.39
2018-08-24T04:13:50.425Z,66.91
2018-08-24T04:16:19.618Z,66.53
2018-08-24T04:18:48.729Z,66.93
2018-08-24T04:21:17.869Z,66.45
2018-08-24T04:23:46.998Z,66.67
2018-08-24T04:26:16.145Z,66.73
2018-08-24T04:28:45.269Z,66.00
2018-08-24T04:31:14.399Z,65.70
2018-08-24T04:33:43.528Z,65.74
2018-08-24T04:36:12.662Z,66.28
2018-08-24T04:38:41.802Z,65.40
2018-08-24T04:41:10.933Z,65.71
2018-08-24T04:43:40.056Z,65.91
2018-08-24T04:46:09.185Z,65.11
2018-08-24T04:48:38.321Z,64.73
2018-08-24T04:51:07.441Z,65.08
2018-08-24T04:53:36.593Z,64.88
2018-08-24T04:56:06.013Z,64.82
2018-08-24T04:58:35.158Z,64.84
2018-08-24T05:01:04.301Z,66.37
2018-08-24T05:03:33.439Z,64.85
2018-08-24T05:06:02.554Z,66.11
2018-08-24T05:08:31.709Z,66.38
2018-08-24T05:11:00.836Z,66.33
2018-08-24T05:13:30.526Z,66.24
2018-08-24T05:15:59.793Z,66.14
2018-08-24T05:18:28.948Z,66.22
2018-08-24T05:20:58.077Z,65.80
2018-08-24T05:23:27.313Z,65.49
2018-08-24T05:25:56.527Z,65.82
2018-08-24T05:28:25.694Z,65.41
2018-08-24T05:30:54.909Z,64.37
2018-08-24T05:33:24.063Z,65.58
2018-08-24T05:35:53.204Z,65.31
2018-08-24T05:38:22.372Z,65.14
2018-08-24T05:40:51.537Z,64.57
2018-08-24T05:43:20.699Z,64.42
2018-08-24T05:45:49.845Z,64.18
2018-08-24T05:48:19.014Z,64.48
2018-08-24T05:50:48.165Z,64.29
2018-08-24T05:53:17.337Z,64.36
2018-08-24T05:55:46.673Z,64.45
2018-08-24T05:58:15.725Z,64.25
2018-08-24T06:00:46.710Z,64.33
2018-08-24T06:03:15.873Z,64.16
2018-08-24T06:05:50.452Z,65.27
2018-08-24T06:08:19.504Z,64.31
2018-08-24T06:10:48.673Z,65.25
2018-08-24T06:13:19.029Z,64.16
2018-08-24T06:15:49.592Z,64.77
2018-08-24T06:18:18.771Z,64.92
2018-08-24T06:20:47.894Z,64.83
2018-08-24T06:23:17.012Z,64.30
2018-08-24T06:25:46.165Z,64.64
2018-08-24T06:28:15.385Z,65.13
2018-08-24T06:30:44.529Z,64.87
2018-08-24T06:33:13.649Z,64.74
2018-08-24T06:35:42.784Z,63.84
2018-08-24T06:38:11.970Z,63.94
2018-08-24T06:40:41.093Z,64.19
2018-08-24T06:43:10.222Z,63.87
2018-08-24T06:45:39.345Z,63.92
2018-08-24T06:48:08.497Z,62.80
2018-08-24T06:50:37.633Z,63.70
2018-08-24T06:53:06.780Z,63.15
2018-08-24T06:55:35.875Z,63.79
2018-08-24T06:58:05.073Z,63.54
2018-08-24T07:00:34.200Z,63.05
2018-08-24T07:03:03.605Z,62.86
2018-08-24T07:05:32.796Z,64.00
2018-08-24T07:08:01.926Z,63.62
2018-08-24T07:10:31.114Z,64.88
2018-08-24T07:13:00.331Z,66.03
2018-08-24T07:15:29.419Z,67.02
2018-08-24T07:18:00.481Z,66.93
2018-08-24T07:20:29.854Z,66.91
2018-08-24T07:22:58.965Z,66.76
2018-08-24T07:25:28.138Z,67.49
2018-08-24T07:27:57.270Z,67.62
2018-08-24T07:30:26.461Z,68.09
2018-08-24T07:32:55.606Z,68.70
2018-08-24T07:35:24.781Z,67.31
2018-08-24T07:37:53.925Z,68.10
2018-08-24T07:40:23.081Z,66.98
2018-08-24T07:42:52.249Z,67.19
2018-08-24T07:45:21.409Z,66.29
2018-08-24T07:47:50.561Z,66.54
2018-08-24T07:50:19.685Z,66.48
2018-08-24T07:52:48.831Z,66.67
2018-08-24T07:55:17.958Z,66.21
2018-08-24T07:57:47.093Z,67.21
2018-08-24T08:00:16.242Z,66.53
2018-08-24T08:02:45.725Z,65.57
2018-08-24T08:05:15.345Z,65.61
2018-08-24T08:07:44.590Z,64.73
2018-08-24T08:10:13.745Z,65.51
2018-08-24T08:12:43.034Z,64.22
2018-08-24T08:15:12.053Z,65.12
2018-08-24T08:17:41.596Z,63.90
2018-08-24T08:20:11.277Z,64.76
2018-08-24T08:22:40.429Z,64.78
2018-08-24T08:25:09.582Z,65.06
2018-08-24T08:27:38.751Z,65.01
2018-08-24T08:30:08.110Z,63.99
2018-08-24T08:32:37.268Z,64.58
2018-08-24T08:35:06.481Z,63.24
2018-08-24T08:37:35.625Z,63.86
2018-08-24T08:40:04.790Z,64.32
2018-08-24T08:42:33.957Z,63.18
2018-08-24T08:45:03.105Z,60.97
2018-08-24T08:47:32.288Z,61.98
2018-08-24T08:50:01.437Z,62.48
2018-08-24T08:52:30.630Z,61.87
2018-08-24T08:54:59.785Z,62.24
2018-08-24T08:57:28.983Z,62.02
2018-08-24T08:59:58.158Z,61.35
2018-08-24T09:02:27.309Z,62.24
2018-08-24T09:04:56.477Z,62.22
2018-08-24T09:07:25.653Z,62.10
2018-08-24T09:09:54.862Z,61.52
2018-08-24T09:12:24.031Z,62.22
2018-08-24T09:14:53.201Z,62.26
2018-08-24T09:17:27.528Z,62.60
2018-08-24T09:20:01.902Z,62.05
2018-08-24T09:22:36.186Z,62.88
2018-08-24T09:25:10.689Z,62.23
2018-08-24T09:28:42.789Z,62.09
2018-08-24T09:31:19.132Z,61.73
2018-08-24T09:33:48.288Z,61.39
2018-08-24T09:36:20.594Z,61.40
2018-08-24T09:38:50.924Z,62.45
2018-08-24T09:41:20.097Z,62.40
2018-08-24T09:43:55.569Z,62.38
2018-08-24T09:46:30.053Z,61.78
2018-08-24T09:49:04.499Z,63.29
2018-08-24T09:51:33.621Z,63.37
2018-08-24T09:54:09.696Z,62.98
2018-08-24T09:56:40.198Z,64.13
2018-08-24T09:59:09.373Z,64.74
2018-08-24T10:01:43.767Z,64.30
2018-08-24T10:04:18.187Z,64.03
2018-08-24T10:06:52.685Z,64.59
2018-08-24T10:09:21.830Z,64.03
2018-08-24T10:11:50.986Z,63.88
2018-08-24T10:14:20.153Z,63.40
2018-08-24T10:16:49.380Z,64.03
2018-08-24T10:19:18.525Z,65.02
2018-08-24T10:21:47.713Z,65.99
2018-08-24T10:24:16.857Z,66.47
2018-08-24T10:26:46.017Z,65.83
2018-08-24T10:29:15.211Z,66.14
2018-08-24T10:31:44.297Z,65.99
2018-08-24T10:34:13.421Z,65.98
2018-08-24T10:36:42.576Z,66.65
2018-08-24T10:39:12.442Z,65.87
2018-08-24T10:41:41.621Z,66.42
2018-08-24T10:44:10.761Z,67.33
2018-08-24T10:46:39.905Z,66.59
2018-08-24T10:49:09.035Z,66.93
2018-08-24T10:51:38.193Z,66.72
2018-08-24T10:54:07.322Z,67.47
2018-08-24T10:56:36.489Z,67.79
2018-08-24T10:59:05.720Z,67.72
2018-08-24T11:01:34.889Z,68.48
2018-08-24T11:04:04.070Z,70.43
2018-08-24T11:06:33.249Z,73.81
2018-08-24T11:09:02.423Z,73.07
2018-08-24T11:11:31.573Z,74.65
2018-08-24T11:14:00.722Z,74.56
2018-08-24T11:16:29.889Z,75.54
2018-08-24T11:18:59.034Z,75.24
2018-08-24T11:21:28.178Z,76.97
2018-08-24T11:23:57.341Z,75.49
2018-08-24T11:26:26.501Z,75.66
2018-08-24T11:28:55.695Z,75.99
2018-08-24T11:31:24.825Z,77.17
2018-08-24T11:33:53.987Z,77.67
2018-08-24T11:36:23.221Z,77.13
2018-08-24T11:38:52.386Z,76.48
2018-08-24T11:41:21.545Z,76.28
2018-08-24T11:43:50.717Z,76.47
2018-08-24T11:46:19.877Z,76.70
2018-08-24T11:48:49.032Z,76.98
2018-08-24T11:51:18.174Z,76.40
2018-08-24T11:53:47.332Z,76.28
2018-08-24T11:56:16.501Z,75.02
2018-08-24T11:58:45.669Z,74.76
2018-08-24T12:01:14.821Z,73.93
2018-08-24T12:03:43.974Z,74.28
2018-08-24T12:06:13.137Z,73.37
2018-08-24T12:08:42.301Z,73.61
2018-08-24T12:11:11.446Z,73.27
2018-08-24T12:13:40.629Z,72.28
2018-08-24T12:16:09.777Z,71.86
2018-08-24T12:18:38.935Z,72.24
2018-08-24T12:21:08.109Z,71.41
2018-08-24T12:23:37.291Z,70.08
2018-08-24T12:26:07.010Z,67.68
2018-08-24T12:28:36.161Z,68.77
2018-08-24T12:31:05.522Z,66.52
2018-08-24T12:33:34.547Z,63.39
2018-08-24T12:36:03.730Z,65.17
2018-08-24T12:38:32.853Z,62.57
2018-08-24T12:41:02.048Z,60.64
2018-08-24T12:43:31.236Z,60.07
2018-08-24T12:46:00.334Z,60.52
2018-08-24T12:48:29.465Z,62.65
2018-08-24T12:50:58.609Z,60.46
2018-08-24T12:53:27.739Z,61.25
2018-08-24T12:55:56.962Z,61.07
2018-08-24T12:58:26.155Z,61.09
2018-08-24T13:00:55.322Z,62.76
2018-08-24T13:03:24.443Z,61.05
2018-08-24T13:05:53.604Z,61.81
2018-08-24T13:08:22.730Z,62.83
2018-08-24T13:10:51.871Z,63.99
2018-08-24T13:13:21.007Z,63.72
2018-08-24T13:15:50.293Z,63.10
2018-08-24T13:18:19.404Z,63.67
2018-08-24T13:20:48.562Z,62.91
2018-08-24T13:23:17.820Z,63.30
2018-08-24T13:25:46.969Z,63.01
2018-08-24T13:28:16.097Z,63.62
2018-08-24T13:30:45.297Z,63.09
2018-08-24T13:33:14.428Z,63.30
2018-08-24T13:35:43.578Z,62.85
2018-08-24T13:38:12.742Z,63.21
2018-08-24T13:40:41.881Z,62.18
2018-08-24T13:43:11.472Z,61.97
2018-08-24T13:45:40.709Z,61.62
2018-08-24T13:48:09.880Z,61.72
2018-08-24T13:50:39.001Z,61.66
2018-08-24T13:53:08.129Z,62.02
2018-08-24T13:55:37.282Z,59.88
2018-08-24T13:58:06.409Z,60.34
2018-08-24T14:00:35.529Z,61.11
2018-08-24T14:03:04.682Z,59.78
2018-08-24T14:05:33.919Z,59.63
2018-08-24T14:08:02.969Z,59.52
2018-08-24T14:10:32.110Z,59.23
2018-08-24T14:13:01.292Z,59.18
2018-08-24T14:15:30.407Z,58.79
2018-08-24T14:17:59.552Z,58.06
2018-08-24T14:20:28.688Z,59.00
2018-08-24T14:22:57.805Z,58.86
2018-08-24T14:25:26.988Z,59.37
2018-08-24T14:27:56.113Z,59.76
2018-08-24T14:30:25.275Z,59.29
2018-08-24T14:32:54.397Z,57.71
2018-08-24T14:35:23.533Z,58.04
2018-08-24T14:37:52.721Z,57.86
2018-08-24T14:40:21.869Z,56.91
2018-08-24T14:42:51.017Z,57.04
2018-08-24T14:45:20.177Z,56.06
2018-08-24T14:47:49.372Z,56.78
2018-08-24T14:50:18.518Z,55.62
2018-08-24T14:52:47.685Z,54.81
2018-08-24T14:55:16.849Z,55.79
2018-08-24T14:57:46.013Z,54.70
2018-08-24T15:00:15.189Z,53.61
2018-08-24T15:02:44.346Z,54.47
2018-08-24T15:05:13.536Z,55.25
2018-08-24T15:07:42.713Z,57.53
2018-08-24T15:10:12.401Z,59.87
2018-08-24T15:12:41.709Z,61.71
2018-08-24T15:15:10.887Z,63.74
2018-08-24T15:17:40.078Z,64.66
2018-08-24T15:20:09.327Z,66.50
2018-08-24T15:22:38.473Z,67.25
2018-08-24T15:25:07.702Z,67.85
2018-08-24T15:27:36.865Z,68.01
2018-08-24T15:30:06.501Z,68.30
2018-08-24T15:32:35.663Z,69.25
2018-08-24T15:35:04.857Z,69.83
2018-08-24T15:37:34.008Z,69.96
2018-08-24T15:40:03.183Z,69.84
2018-08-24T15:42:32.349Z,70.96
2018-08-24T15:45:01.528Z,70.98
2018-08-24T15:47:30.718Z,71.59
2018-08-24T15:49:59.904Z,70.54
2018-08-24T15:52:29.087Z,69.30
2018-08-24T15:54:58.237Z,69.20
2018-08-24T15:57:27.633Z,69.15
2018-08-24T15:59:56.887Z,69.21
2018-08-24T16:02:26.030Z,69.84
2018-08-24T16:04:55.201Z,70.10
2018-08-24T16:07:24.357Z,69.23
2018-08-24T16:09:53.540Z,69.46
2018-08-24T16:12:22.736Z,69.05
2018-08-24T16:14:51.866Z,68.56
2018-08-24T16:17:21.047Z,69.32
2018-08-24T16:19:50.214Z,69.98
2018-08-24T16:22:19.572Z,71.06
2018-08-24T16:24:48.754Z,72.22
2018-08-24T16:27:22.565Z,71.52
2018-08-24T16:29:53.821Z,71.42
2018-08-24T16:32:23.001Z,71.73
2018-08-24T16:34:52.501Z,71.37
2018-08-24T16:37:21.662Z,70.76
2018-08-24T16:39:50.885Z,70.33
2018-08-24T16:42:20.029Z,70.33
2018-08-24T16:44:49.201Z,69.82
2018-08-24T16:47:18.369Z,69.90
2018-08-24T16:49:47.531Z,70.85
2018-08-24T16:52:16.710Z,70.55
2018-08-24T16:54:45.857Z,71.98
2018-08-24T16:57:15.053Z,71.30
2018-08-24T16:59:44.218Z,71.27
2018-08-24T17:02:13.387Z,71.35
2018-08-24T17:04:42.542Z,70.59
2018-08-24T17:07:11.746Z,70.56
2018-08-24T17:09:40.957Z,68.94
2018-08-24T17:12:10.110Z,69.39
2018-08-24T17:14:39.299Z,69.75
2018-08-24T17:17:08.445Z,70.57
2018-08-24T17:19:37.610Z,69.85
2018-08-24T17:22:07.057Z,70.65
2018-08-24T17:24:36.238Z,69.69
2018-08-24T17:27:05.658Z,68.40
2018-08-24T17:29:34.922Z,68.37
2018-08-24T17:32:04.098Z,68.42
2018-08-24T17:34:33.367Z,67.42
2018-08-24T17:37:02.501Z,67.40
2018-08-24T17:39:31.664Z,65.23
2018-08-24T17:42:00.825Z,66.46
2018-08-24T17:44:30.005Z,67.23
2018-08-24T17:46:59.173Z,66.89
2018-08-24T17:49:28.348Z,67.96
2018-08-24T17:51:57.509Z,67.86
2018-08-24T17:54:26.731Z,67.91
2018-08-24T17:56:55.838Z,68.06
2018-08-24T17:59:24.973Z,67.14
2018-08-24T18:01:54.117Z,67.65
2018-08-24T18:04:23.308Z,67.58
2018-08-24T18:06:52.535Z,68.27
2018-08-24T18:09:21.703Z,67.67
2018-08-24T18:11:50.845Z,67.57
2018-08-24T18:14:21.017Z,68.18
2018-08-24T18:16:50.754Z,68.57
2018-08-24T18:19:20.564Z,69.25
2018-08-24T18:21:51.877Z,69.85
2018-08-24T18:24:21.070Z,70.46
2018-08-24T18:26:50.258Z,70.63
2018-08-24T18:29:19.438Z,69.94
2018-08-24T18:31:48.616Z,70.22
2018-08-24T18:34:18.032Z,70.57
2018-08-24T18:36:47.287Z,70.83
2018-08-24T18:39:16.382Z,70.76
2018-08-24T18:41:45.610Z,70.94
2018-08-24T18:44:14.890Z,72.55
2018-08-24T18:46:44.189Z,71.40
2018-08-24T18:49:13.361Z,71.52
2018-08-24T18:51:42.590Z,71.33
2018-08-24T18:54:11.825Z,72.05
2018-08-24T18:56:41.213Z,72.45
2018-08-24T18:59:10.289Z,71.63
2018-08-24T19:01:39.472Z,72.32
2018-08-24T19:04:08.830Z,72.33
2018-08-24T19:06:38.149Z,73.04
2018-08-24T19:09:09.814Z,72.31
2018-08-24T19:11:44.157Z,70.52
2018-08-24T19:14:13.341Z,71.31
2018-08-24T19:16:42.522Z,72.17
2018-08-24T19:19:16.881Z,73.12
2018-08-24T19:21:47.470Z,71.88
2018-08-24T19:24:16.617Z,71.73
2018-08-24T19:26:45.774Z,71.77
2018-08-24T19:29:20.229Z,71.66
2018-08-24T19:31:49.418Z,71.39
2018-08-24T19:34:18.577Z,72.39
2018-08-24T19:36:47.770Z,72.14
2018-08-24T19:39:16.914Z,73.78
2018-08-24T19:41:51.353Z,73.77
2018-08-24T19:44:20.478Z,74.80
2018-08-24T19:46:49.888Z,74.55
2018-08-24T19:49:20.559Z,74.91
2018-08-24T19:51:49.834Z,75.24
2018-08-24T19:54:18.977Z,75.69
2018-08-24T19:56:48.197Z,75.89
2018-08-24T19:59:17.786Z,75.65
2018-08-24T20:01:47.055Z,76.21
2018-08-24T20:04:16.284Z,76.79
2018-08-24T20:07:53.662Z,76.59
2018-08-24T20:10:22.837Z,76.36
2018-08-24T20:12:52.027Z,76.39
2018-08-24T20:15:26.405Z,76.51
2018-08-24T20:17:55.605Z,76.26
2018-08-24T20:20:24.785Z,76.37
2018-08-24T20:22:53.926Z,75.99
2018-08-24T20:25:23.140Z,75.36
2018-08-24T20:27:52.306Z,74.85
2018-08-24T20:30:21.449Z,74.91
2018-08-24T20:32:50.602Z,73.93
2018-08-24T20:35:19.750Z,74.12
2018-08-24T20:37:48.889Z,73.73
2018-08-24T20:40:18.016Z,74.23
2018-08-24T20:42:47.160Z,73.96
2018-08-24T20:45:16.311Z,73.62
2018-08-24T20:47:45.470Z,73.66
2018-08-24T20:50:14.623Z,72.88
2018-08-24T20:52:43.757Z,72.02
2018-08-24T20:55:12.985Z,73.07
2018-08-24T20:57:42.077Z,72.24
2018-08-24T21:00:11.334Z,71.97
2018-08-24T21:02:40.485Z,71.70
2018-08-24T21:05:09.684Z,71.38
2018-08-24T21:07:38.849Z,70.46
2018-08-24T21:10:08.038Z,69.85
2018-08-24T21:12:37.392Z,69.47
2018-08-24T21:15:06.920Z,69.25
2018-08-24T21:17:36.030Z,68.89
2018-08-24T21:20:05.200Z,68.91
2018-08-24T21:22:34.328Z,69.30
2018-08-24T21:25:03.490Z,68.99
2018-08-24T21:27:32.787Z,68.73
2018-08-24T21:30:02.094Z,69.18
2018-08-24T21:32:31.293Z,69.47
2018-08-24T21:35:00.485Z,70.03
2018-08-24T21:37:29.727Z,70.28
2018-08-24T21:39:58.967Z,70.06
2018-08-24T21:42:28.180Z,69.77
2018-08-24T21:44:57.345Z,70.40
2018-08-24T21:47:26.486Z,69.79
2018-08-24T21:49:55.658Z,70.19
2018-08-24T21:52:24.817Z,69.49
2018-08-24T21:54:53.987Z,69.90
2018-08-24T21:57:23.163Z,69.64
2018-08-24T21:59:52.365Z,70.22
2018-08-24T22:02:21.500Z,70.37
2018-08-24T22:04:50.661Z,69.78
2018-08-24T22:07:19.817Z,70.02
2018-08-24T22:09:49.317Z,70.13
2018-08-24T22:12:18.449Z,69.46
2018-08-24T22:14:47.630Z,69.46
2018-08-24T22:17:16.781Z,69.29
2018-08-24T22:19:45.955Z,69.29
2018-08-24T22:22:15.181Z,68.21
2018-08-24T22:24:44.409Z,68.92
2018-08-24T22:27:13.593Z,68.27
2018-08-24T22:29:42.770Z,67.70
2018-08-24T22:32:11.933Z,68.02
2018-08-24T22:34:41.129Z,68.01
2018-08-24T22:37:10.385Z,67.27
2018-08-24T22:39:39.785Z,67.54
2018-08-24T22:42:08.982Z,67.26
2018-08-24T22:44:38.209Z,66.23
2018-08-24T22:47:07.449Z,66.75
2018-08-24T22:49:36.618Z,66.91
2018-08-24T22:52:06.575Z,66.91
2018-08-24T22:54:35.797Z,66.75
2018-08-24T22:57:04.957Z,66.19
2018-08-24T22:59:34.152Z,66.40
2018-08-24T23:02:03.402Z,67.46
2018-08-24T23:04:32.536Z,67.35
2018-08-24T23:07:01.717Z,66.84
2018-08-24T23:09:30.889Z,67.65
2018-08-24T23:12:00.045Z,68.15
2018-08-24T23:14:29.213Z,67.65
2018-08-24T23:16:58.384Z,67.91
2018-08-24T23:19:27.564Z,68.58
2018-08-24T23:21:56.736Z,68.85
2018-08-24T23:24:25.902Z,68.19
2018-08-24T23:26:55.062Z,68.66
2018-08-24T23:29:24.227Z,67.03
2018-08-24T23:31:53.379Z,67.14
2018-08-24T23:34:22.532Z,67.77
2018-08-24T23:36:51.661Z,67.83
2018-08-24T23:39:20.858Z,67.16
2018-08-24T23:41:49.993Z,65.95
2018-08-24T23:44:19.149Z,66.96
2018-08-24T23:46:48.305Z,66.31
2018-08-24T23:49:17.440Z,67.50
2018-08-24T23:51:46.577Z,66.43
2018-08-24T23:54:15.719Z,67.08
2018-08-24T23:56:44.862Z,67.57
2018-08-24T23:59:14.022Z,66.44
